Etusivu
METAR-TAF:

METAR-TAF

Lentoasemat :

Albenga, Italia

Leveyspiiri: 44-03N, Pituuspiiri: 008-07E, korkeus merenpinnasta: 45 m

Tämänhetkinen sää

Tämä raportti tehtiin 9 tuntia ja 43 minuuttia sitten, kello 17.50 UTC
tyyntä
Lämpötila 17°C
Kosteus 82%
Ilmanpaine 1021 hPa
Näkyvyys 10 km tai enemmän
ei pilviä alle 1500 m:ssä eikä cumulonimbus-pilviä

METAR: LIMG 201750Z 00000KT CAVOK 17/14 Q1021

Aika: 05:33 (03:33 UTC)


TAF: puuttuu

Säähavainnot ja -ennusteet yli 4000 lentoasemalta (METAR- ja TAF-raportit).

Käytössä olevat sääasemat on merkitty karttaan keltaisilla ja punaisilla pisteillä.

Aseta hiiri pisteen päälle nähdäksesi sääaseman nimen.

Klikkaa sitten nähdäksesi säähavainnot ja -ennusteet.

Kartan vaihtaminen: klikkaa mustalla rastilla varustettuja vihreitä pisteitä, niin voit zoomata sisään; viivalla varustettua vihreää pistettä, niin voit zoomata ulos tai vihreitä nuolia, niin pääset viereisille kartoille.


METAR-TAF: